createdAt,value
2023-02-18T00:02:26.383Z,0.37
2023-02-18T00:04:56.520Z,0.60
2023-02-18T00:07:26.462Z,0.10
2023-02-18T00:09:56.218Z,0.10
2023-02-18T00:12:26.040Z,0.20
2023-02-18T00:14:55.801Z,0.30
2023-02-18T00:17:25.764Z,0.40
2023-02-18T00:19:55.539Z,0.30
2023-02-18T00:22:25.883Z,0.17
2023-02-18T00:24:55.640Z,0.30
2023-02-18T00:27:25.453Z,0.42
2023-02-18T00:29:55.207Z,0.57
2023-02-18T00:32:28.354Z,0.10
2023-02-18T00:34:58.500Z,0.50
2023-02-18T00:37:28.353Z,0.37
2023-02-18T00:39:58.153Z,0.30
2023-02-18T00:42:27.948Z,0.37
2023-02-18T00:44:57.716Z,0.40
2023-02-18T00:47:27.545Z,0.50
2023-02-18T00:49:57.601Z,0.20
2023-02-18T00:52:27.395Z,0.83
2023-02-18T00:54:57.158Z,0.10
2023-02-18T00:57:26.950Z,0.30
2023-02-18T00:59:56.764Z,0.50
2023-02-18T01:02:26.578Z,0.70
2023-02-18T01:04:56.388Z,0.20
2023-02-18T01:07:26.247Z,0.10
2023-02-18T01:09:56.294Z,0.30
2023-02-18T01:12:26.109Z,0.10
2023-02-18T01:14:56.860Z,0.20
2023-02-18T01:17:27.012Z,0.42
2023-02-18T01:19:56.842Z,1.27
2023-02-18T01:22:26.713Z,0.20
2023-02-18T01:24:56.496Z,0.57
2023-02-18T01:27:28.151Z,0.40
2023-02-18T01:29:58.024Z,0.10
2023-02-18T01:32:27.972Z,0.20
2023-02-18T01:34:57.780Z,0.40
2023-02-18T01:37:28.834Z,0.17
2023-02-18T01:39:58.813Z,0.30
2023-02-18T01:42:30.612Z,0.50
2023-02-18T01:45:26.150Z,0.20
2023-02-18T01:47:56.431Z,0.30
2023-02-18T01:50:26.872Z,0.10
2023-02-18T01:52:56.441Z,0.10
2023-02-18T01:55:26.304Z,0.40
2023-02-18T01:57:56.558Z,0.20
2023-02-18T02:00:26.551Z,0.53
2023-02-18T02:02:56.571Z,0.97
2023-02-18T02:05:27.883Z,0.20
2023-02-18T02:07:57.502Z,0.42
2023-02-18T02:10:36.112Z,0.20
2023-02-18T02:13:21.918Z,0.33
2023-02-18T02:15:54.814Z,0.20
2023-02-18T02:18:30.540Z,0.33
2023-02-18T02:21:06.170Z,0.43
2023-02-18T02:23:58.540Z,0.30
2023-02-18T02:27:02.133Z,0.30
2023-02-18T02:29:43.740Z,0.30
2023-02-18T02:35:20.484Z,0.30
2023-02-18T02:37:55.898Z,0.10
2023-02-18T02:40:45.969Z,0.43
2023-02-18T02:43:36.650Z,0.30
2023-02-18T02:46:24.194Z,0.20
2023-02-18T02:49:13.718Z,0.20
2023-02-18T02:52:04.448Z,0.30
2023-02-18T02:54:34.194Z,0.20
2023-02-18T02:57:16.588Z,0.40
2023-02-18T02:59:57.217Z,0.20
2023-02-18T03:02:36.012Z,0.40
2023-02-18T03:05:24.928Z,0.62
2023-02-18T03:08:17.670Z,0.23
2023-02-18T03:11:08.698Z,0.30
2023-02-18T03:16:37.772Z,0.27
2023-02-18T03:19:16.706Z,0.30
2023-02-18T03:22:08.307Z,0.23
2023-02-18T03:24:44.387Z,0.20
2023-02-18T03:27:21.540Z,0.30
2023-02-18T03:29:54.391Z,0.20
2023-02-18T03:32:26.501Z,0.63
2023-02-18T03:34:59.336Z,0.13
2023-02-18T03:37:31.170Z,0.23
2023-02-18T03:40:03.045Z,0.40
2023-02-18T03:42:33.321Z,0.50
2023-02-18T03:45:03.413Z,0.87
2023-02-18T03:47:33.060Z,1.20
2023-02-18T03:50:03.040Z,0.30
2023-02-18T03:52:35.531Z,0.20
2023-02-18T03:55:07.238Z,0.10
2023-02-18T03:57:37.252Z,0.20
2023-02-18T04:00:08.544Z,0.50
2023-02-18T04:02:44.270Z,0.20
2023-02-18T04:05:16.421Z,0.15
2023-02-18T04:07:46.263Z,0.63
2023-02-18T04:10:15.989Z,0.20
2023-02-18T04:12:46.035Z,0.55
2023-02-18T04:15:16.085Z,0.40
2023-02-18T04:17:45.859Z,0.30
2023-02-18T04:20:16.749Z,0.30
2023-02-18T04:22:46.508Z,0.50
2023-02-18T04:25:16.398Z,0.40
2023-02-18T04:27:46.249Z,0.37
2023-02-18T04:30:18.579Z,0.43
2023-02-18T04:32:49.196Z,0.50
2023-02-18T04:35:19.313Z,0.43
2023-02-18T04:37:49.149Z,0.30
2023-02-18T04:40:19.045Z,0.30
2023-02-18T04:42:48.785Z,0.50
2023-02-18T04:45:18.562Z,0.20
2023-02-18T04:47:48.387Z,0.40
2023-02-18T04:50:18.046Z,0.23
2023-02-18T04:52:47.811Z,0.10
2023-02-18T04:55:17.496Z,0.67
2023-02-18T04:57:47.266Z,0.53
2023-02-18T05:00:19.162Z,0.67
2023-02-18T05:02:49.281Z,0.57
2023-02-18T05:05:19.197Z,0.60
2023-02-18T05:07:49.241Z,0.20
2023-02-18T05:10:19.596Z,0.40
2023-02-18T05:12:49.185Z,0.30
2023-02-18T05:15:19.116Z,0.30
2023-02-18T05:17:49.039Z,0.57
2023-02-18T05:20:18.706Z,0.50
2023-02-18T05:22:48.458Z,0.20
2023-02-18T05:25:18.340Z,0.28
2023-02-18T05:27:48.460Z,0.28
2023-02-18T05:30:18.405Z,0.30
2023-02-18T05:32:48.283Z,0.40
2023-02-18T05:35:17.894Z,0.20
2023-02-18T05:37:49.134Z,0.40
2023-02-18T05:40:19.021Z,0.43
2023-02-18T05:42:48.789Z,0.40
2023-02-18T05:45:18.464Z,0.30
2023-02-18T05:47:48.402Z,0.20
2023-02-18T05:50:18.220Z,0.10
2023-02-18T05:52:48.333Z,0.20
2023-02-18T05:55:18.224Z,0.20
2023-02-18T05:57:47.971Z,0.73
2023-02-18T06:00:18.739Z,0.30
2023-02-18T06:02:49.039Z,0.30
2023-02-18T06:05:18.809Z,0.20
2023-02-18T06:07:48.707Z,0.20
2023-02-18T06:10:18.615Z,0.13
2023-02-18T06:12:48.702Z,0.85
2023-02-18T06:15:18.541Z,0.70
2023-02-18T06:17:48.410Z,0.40
2023-02-18T06:20:17.952Z,0.23
2023-02-18T06:22:47.775Z,0.40
2023-02-18T06:25:17.782Z,0.20
2023-02-18T06:27:47.591Z,0.17
2023-02-18T06:30:17.220Z,0.20
2023-02-18T06:32:47.045Z,0.30
2023-02-18T06:35:16.547Z,0.30
2023-02-18T06:37:46.456Z,0.50
2023-02-18T06:40:16.228Z,0.27
2023-02-18T06:42:46.329Z,0.77
2023-02-18T06:45:17.933Z,0.33
2023-02-18T06:47:47.387Z,0.30
2023-02-18T06:50:17.129Z,0.47
2023-02-18T06:52:47.022Z,0.37
2023-02-18T06:55:16.545Z,0.30
2023-02-18T06:57:46.428Z,0.60
2023-02-18T07:00:16.582Z,0.40
2023-02-18T07:02:46.182Z,0.20
2023-02-18T07:05:16.207Z,0.33
2023-02-18T07:07:47.113Z,0.47
2023-02-18T07:10:16.962Z,0.25
2023-02-18T07:12:47.056Z,0.40
2023-02-18T07:15:21.435Z,0.20
2023-02-18T07:17:54.874Z,0.40
2023-02-18T07:20:25.389Z,0.30
2023-02-18T07:22:57.009Z,0.13
2023-02-18T07:25:27.488Z,0.30
2023-02-18T07:27:57.182Z,0.30
2023-02-18T07:30:27.089Z,0.40
2023-02-18T07:32:56.889Z,0.53
2023-02-18T07:35:26.712Z,0.50
2023-02-18T07:37:57.866Z,0.47
2023-02-18T07:40:27.733Z,0.67
2023-02-18T07:42:57.803Z,0.33
2023-02-18T07:45:27.711Z,0.30
2023-02-18T07:47:57.518Z,0.30
2023-02-18T07:50:27.613Z,0.23
2023-02-18T07:52:57.388Z,0.33
2023-02-18T07:55:28.897Z,0.23
2023-02-18T08:00:27.437Z,0.40
2023-02-18T08:02:57.214Z,0.70
2023-02-18T08:05:27.327Z,0.50
2023-02-18T08:07:57.155Z,0.47
2023-02-18T08:10:26.940Z,0.43
2023-02-18T08:12:57.000Z,0.40
2023-02-18T08:15:26.801Z,0.40
2023-02-18T08:17:56.591Z,1.00
2023-02-18T08:20:27.043Z,0.50
2023-02-18T08:22:56.567Z,0.40
2023-02-18T08:25:29.632Z,0.60
2023-02-18T08:27:58.027Z,0.40
2023-02-18T08:30:28.607Z,0.27
2023-02-18T08:32:58.333Z,0.30
2023-02-18T08:35:28.140Z,0.40
2023-02-18T08:37:58.710Z,1.07
2023-02-18T08:40:28.231Z,0.40
2023-02-18T08:42:58.017Z,0.37
2023-02-18T08:45:27.955Z,0.10
2023-02-18T08:48:16.597Z,0.23
2023-02-18T08:50:29.499Z,0.10
2023-02-18T08:53:03.443Z,0.20
2023-02-18T08:55:35.179Z,0.30
2023-02-18T08:58:06.770Z,0.40
2023-02-18T09:00:37.301Z,0.30
2023-02-18T09:03:06.916Z,0.37
2023-02-18T09:05:36.723Z,0.43
2023-02-18T09:08:06.834Z,0.40
2023-02-18T09:10:36.784Z,0.30
2023-02-18T09:13:06.906Z,0.20
2023-02-18T09:15:36.894Z,0.60
2023-02-18T09:18:07.036Z,0.33
2023-02-18T09:20:36.879Z,0.50
2023-02-18T09:23:06.841Z,0.37
2023-02-18T09:25:36.671Z,0.83
2023-02-18T09:28:06.526Z,0.30
2023-02-18T09:30:36.450Z,0.20
2023-02-18T09:33:06.543Z,0.23
2023-02-18T09:35:42.311Z,0.10
2023-02-18T09:38:13.828Z,0.67
2023-02-18T09:40:52.250Z,0.27
2023-02-18T09:43:27.792Z,0.60
2023-02-18T09:45:59.949Z,0.53
2023-02-18T09:48:35.705Z,0.30
2023-02-18T09:51:07.270Z,0.50
2023-02-18T09:53:36.958Z,0.30
2023-02-18T09:56:07.969Z,0.23
2023-02-18T09:58:37.525Z,0.20
2023-02-18T10:01:19.030Z,0.60
2023-02-18T10:03:48.964Z,0.20
2023-02-18T10:06:21.549Z,0.67
2023-02-18T10:08:53.707Z,0.53
2023-02-18T10:11:35.121Z,0.78
2023-02-18T10:14:06.921Z,0.50
2023-02-18T10:16:36.963Z,0.50
2023-02-18T10:19:26.364Z,0.40
2023-02-18T10:21:57.192Z,0.70
2023-02-18T10:24:36.221Z,0.42
2023-02-18T10:27:08.407Z,0.63
2023-02-18T10:29:38.385Z,0.63
2023-02-18T10:32:25.848Z,0.60
2023-02-18T10:35:07.462Z,0.60
2023-02-18T10:40:28.021Z,0.45
2023-02-18T10:43:09.491Z,0.63
2023-02-18T10:45:50.970Z,0.43
2023-02-18T10:48:35.554Z,0.50
2023-02-18T10:51:11.085Z,0.80
2023-02-18T10:53:43.480Z,0.60
2023-02-18T10:56:37.380Z,1.33
2023-02-18T10:59:09.987Z,1.33
2023-02-18T11:01:40.848Z,1.07
2023-02-18T11:04:19.090Z,0.47
2023-02-18T11:06:52.085Z,0.60
2023-02-18T11:09:46.951Z,0.63
2023-02-18T11:12:19.536Z,1.00
2023-02-18T11:14:52.414Z,0.68
2023-02-18T11:17:30.563Z,0.60
2023-02-18T11:20:02.918Z,0.87
2023-02-18T11:22:36.916Z,0.97
2023-02-18T11:25:09.917Z,10.83
2023-02-18T11:27:48.938Z,4.23
2023-02-18T11:30:36.473Z,7.97
2023-02-18T11:33:18.098Z,2.30
2023-02-18T11:35:53.687Z,2.12
2023-02-18T11:38:46.523Z,2.10
2023-02-18T11:41:19.202Z,3.30
2023-02-18T11:43:52.390Z,1.52
2023-02-18T11:46:24.716Z,1.30
2023-02-18T11:48:55.307Z,1.47
2023-02-18T11:51:37.709Z,3.17
2023-02-18T11:54:13.218Z,1.40
2023-02-18T11:56:44.538Z,1.57
2023-02-18T11:59:14.370Z,2.13
2023-02-18T12:01:49.754Z,1.90
2023-02-18T12:04:22.514Z,0.90
2023-02-18T12:07:07.490Z,1.55
2023-02-18T12:09:43.442Z,1.20
2023-02-18T12:12:31.347Z,1.00
2023-02-18T12:15:01.862Z,0.95
2023-02-18T12:17:38.070Z,1.40
2023-02-18T12:20:30.108Z,1.63
2023-02-18T12:23:15.046Z,1.20
2023-02-18T12:26:06.418Z,2.05
2023-02-18T12:29:15.496Z,2.12
2023-02-18T12:32:00.624Z,1.60
2023-02-18T12:34:39.386Z,2.47
2023-02-18T12:37:27.050Z,3.13
2023-02-18T12:40:22.318Z,2.47
2023-02-18T12:43:01.403Z,2.00
2023-02-18T12:45:40.541Z,2.60
2023-02-18T12:48:45.293Z,2.60
2023-02-18T12:51:39.569Z,3.97
2023-02-18T12:54:36.423Z,2.90
2023-02-18T12:57:33.429Z,2.47
2023-02-18T13:00:18.440Z,3.90
2023-02-18T13:02:56.855Z,2.97
2023-02-18T13:05:55.232Z,2.57
2023-02-18T13:08:42.925Z,3.40
2023-02-18T13:11:38.668Z,6.28
2023-02-18T13:14:23.858Z,4.17
2023-02-18T13:16:56.900Z,3.57
2023-02-18T13:19:29.790Z,3.97
2023-02-18T13:22:05.868Z,3.25
2023-02-18T13:24:38.654Z,3.30
2023-02-18T13:27:14.248Z,4.10
2023-02-18T13:29:56.117Z,4.10
2023-02-18T13:32:31.695Z,4.33
2023-02-18T13:35:22.691Z,4.10
2023-02-18T13:38:07.087Z,3.90
2023-02-18T13:40:38.013Z,3.47
2023-02-18T13:43:31.863Z,2.90
2023-02-18T13:46:19.457Z,2.73
2023-02-18T13:48:52.998Z,3.77
2023-02-18T13:51:31.745Z,3.27
2023-02-18T13:54:31.433Z,3.33
2023-02-18T13:57:07.247Z,2.47
2023-02-18T13:59:45.815Z,3.40
2023-02-18T14:02:25.089Z,3.70
2023-02-18T14:04:57.655Z,2.97
2023-02-18T14:07:36.634Z,3.45
2023-02-18T14:10:21.922Z,3.47
2023-02-18T14:13:03.654Z,3.70
2023-02-18T14:15:36.534Z,3.73
2023-02-18T14:18:18.749Z,9.70
2023-02-18T14:20:52.561Z,4.80
2023-02-18T14:23:25.388Z,4.20
2023-02-18T14:26:15.904Z,3.73
2023-02-18T14:28:51.529Z,3.52
2023-02-18T14:31:39.530Z,3.47
2023-02-18T14:34:23.844Z,3.67
2023-02-18T14:37:21.886Z,3.45
2023-02-18T14:40:04.730Z,5.43
2023-02-18T14:42:58.895Z,4.23
2023-02-18T14:46:00.464Z,3.67
2023-02-18T14:48:48.236Z,3.33
2023-02-18T14:51:20.802Z,5.33
2023-02-18T14:53:50.706Z,3.80
2023-02-18T14:56:22.970Z,3.83
2023-02-18T14:59:01.638Z,3.57
2023-02-18T15:01:36.789Z,4.73
2023-02-18T15:04:07.046Z,3.57
2023-02-18T15:06:39.815Z,3.17
2023-02-18T15:09:18.205Z,2.70
2023-02-18T15:12:04.583Z,1.40
2023-02-18T15:14:37.429Z,1.00
2023-02-18T15:17:10.262Z,0.73
2023-02-18T15:19:51.799Z,0.80
2023-02-18T15:22:24.412Z,0.68
2023-02-18T15:24:56.712Z,0.60
2023-02-18T15:27:29.618Z,0.80
2023-02-18T15:30:02.344Z,0.60
2023-02-18T15:32:33.962Z,0.70
2023-02-18T15:35:06.514Z,0.30
2023-02-18T15:37:36.050Z,0.57
2023-02-18T15:40:09.725Z,0.60
2023-02-18T15:42:39.870Z,0.50
2023-02-18T15:45:24.345Z,0.77
2023-02-18T15:47:57.037Z,0.50
2023-02-18T15:50:29.900Z,0.70
2023-02-18T15:53:02.976Z,0.47
2023-02-18T15:55:39.195Z,0.60
2023-02-18T15:58:24.085Z,0.60
2023-02-18T16:00:57.050Z,0.50
2023-02-18T16:03:42.176Z,0.57
2023-02-18T16:06:27.019Z,2.27
2023-02-18T16:09:09.252Z,2.30
2023-02-18T16:11:42.162Z,3.67
2023-02-18T16:14:36.089Z,1.07
2023-02-18T16:17:18.862Z,2.35
2023-02-18T16:20:04.980Z,6.03
2023-02-18T16:22:36.239Z,7.85
2023-02-18T16:25:19.380Z,1.20
2023-02-18T16:27:55.425Z,1.87
2023-02-18T16:30:27.861Z,12.47
2023-02-18T16:32:58.568Z,10.13
2023-02-18T16:35:40.510Z,1.70
2023-02-18T16:38:03.878Z,6.70
2023-02-18T16:40:36.569Z,0.93
2023-02-18T16:43:18.153Z,2.17
2023-02-18T16:45:51.085Z,0.85
2023-02-18T16:48:41.524Z,1.17
2023-02-18T16:51:28.962Z,6.40
2023-02-18T16:53:58.785Z,2.37
2023-02-18T16:56:33.839Z,1.33
2023-02-18T16:59:03.828Z,4.97
2023-02-18T17:01:41.092Z,16.42
2023-02-18T17:04:13.562Z,3.47
2023-02-18T17:06:46.197Z,1.60
2023-02-18T17:09:19.091Z,2.83
2023-02-18T17:11:51.043Z,1.30
2023-02-18T17:14:22.951Z,1.27
2023-02-18T17:16:54.616Z,0.53
2023-02-18T17:19:24.758Z,0.70
2023-02-18T17:21:54.604Z,2.50
2023-02-18T17:24:24.608Z,2.70
2023-02-18T17:26:54.381Z,0.57
2023-02-18T17:29:24.175Z,1.70
2023-02-18T17:31:57.812Z,0.50
2023-02-18T17:34:32.512Z,0.80
2023-02-18T17:37:02.502Z,0.30
2023-02-18T17:39:32.370Z,0.33
2023-02-18T17:42:02.474Z,0.70
2023-02-18T17:44:32.268Z,0.67
2023-02-18T17:47:02.035Z,0.50
2023-02-18T17:49:31.837Z,1.23
2023-02-18T17:52:02.226Z,0.70
2023-02-18T17:54:32.126Z,1.00
2023-02-18T17:57:01.911Z,1.50
2023-02-18T17:59:31.688Z,0.73
2023-02-18T18:02:01.489Z,0.93
2023-02-18T18:04:32.198Z,1.20
2023-02-18T18:09:30.759Z,0.60
2023-02-18T18:12:00.706Z,0.97
2023-02-18T18:14:30.437Z,0.70
2023-02-18T18:17:02.138Z,1.00
2023-02-18T18:19:33.788Z,0.70
2023-02-18T18:22:03.591Z,1.30
2023-02-18T18:24:33.367Z,0.80
2023-02-18T18:27:03.595Z,0.47
2023-02-18T18:29:33.556Z,0.60
2023-02-18T18:32:03.569Z,0.70
2023-02-18T18:34:33.449Z,0.90
2023-02-18T18:37:03.589Z,0.73
2023-02-18T18:39:33.411Z,0.70
2023-02-18T18:42:03.928Z,0.95
2023-02-18T18:44:33.755Z,0.40
2023-02-18T18:47:03.703Z,0.50
2023-02-18T18:49:33.548Z,0.60
2023-02-18T18:52:04.026Z,1.40
2023-02-18T18:54:34.138Z,1.12
2023-02-18T18:57:04.101Z,0.67
2023-02-18T18:59:33.883Z,1.63
2023-02-18T19:02:03.930Z,0.67
2023-02-18T19:04:33.701Z,0.80
2023-02-18T19:07:03.527Z,0.60
2023-02-18T19:09:33.341Z,1.83
2023-02-18T19:12:03.101Z,0.67
2023-02-18T19:14:32.919Z,0.70
2023-02-18T19:17:02.970Z,0.78
2023-02-18T19:19:33.066Z,0.57
2023-02-18T19:22:03.131Z,0.40
2023-02-18T19:24:33.218Z,0.25
2023-02-18T19:27:03.093Z,0.23
2023-02-18T19:29:32.890Z,0.33
2023-02-18T19:32:03.001Z,0.33
2023-02-18T19:34:32.887Z,0.23
2023-02-18T19:37:02.958Z,0.30
2023-02-18T19:39:33.121Z,0.20
2023-02-18T19:42:02.890Z,0.23
2023-02-18T19:44:36.248Z,0.40
2023-02-18T19:47:07.147Z,0.30
2023-02-18T19:49:37.254Z,0.25
2023-02-18T19:52:07.192Z,0.60
2023-02-18T19:54:37.079Z,0.40
2023-02-18T19:57:07.368Z,1.20
2023-02-18T19:59:37.393Z,1.07
2023-02-18T20:02:07.695Z,1.33
2023-02-18T20:04:37.221Z,0.80
2023-02-18T20:07:07.581Z,0.50
2023-02-18T20:09:37.806Z,0.33
2023-02-18T20:12:09.933Z,0.70
2023-02-18T20:14:43.593Z,0.30
2023-02-18T20:17:13.473Z,0.47
2023-02-18T20:19:43.586Z,0.20
2023-02-18T20:22:13.567Z,0.62
2023-02-18T20:24:43.614Z,0.20
2023-02-18T20:27:13.180Z,0.20
2023-02-18T20:29:43.060Z,0.20
2023-02-18T20:32:12.590Z,0.27
2023-02-18T20:34:43.990Z,0.30
2023-02-18T20:39:42.608Z,0.37
2023-02-18T20:42:16.641Z,0.50
2023-02-18T20:44:43.784Z,0.50
2023-02-18T20:47:14.374Z,0.43
2023-02-18T20:49:44.108Z,0.30
2023-02-18T20:52:13.752Z,0.20
2023-02-18T20:54:43.649Z,0.43
2023-02-18T20:57:13.350Z,0.37
2023-02-18T20:59:43.098Z,0.10
2023-02-18T21:02:16.806Z,0.27
2023-02-18T21:04:46.732Z,0.23
2023-02-18T21:07:16.715Z,0.23
2023-02-18T21:09:46.488Z,0.10
2023-02-18T21:12:16.233Z,0.53
2023-02-18T21:14:46.083Z,0.90
2023-02-18T21:17:16.035Z,0.97
2023-02-18T21:19:45.749Z,0.40
2023-02-18T21:22:15.523Z,0.40
2023-02-18T21:24:45.317Z,0.50
2023-02-18T21:27:14.804Z,0.27
2023-02-18T21:29:44.678Z,0.30
2023-02-18T21:32:14.296Z,0.20
2023-02-18T21:34:44.442Z,0.23
2023-02-18T21:37:14.102Z,0.37
2023-02-18T21:39:43.920Z,0.20
2023-02-18T21:42:13.513Z,0.60
2023-02-18T21:44:43.621Z,0.55
2023-02-18T21:47:13.242Z,0.43
2023-02-18T21:49:43.038Z,0.50
2023-02-18T21:52:12.662Z,0.10
2023-02-18T21:54:44.961Z,0.43
2023-02-18T21:57:18.066Z,0.40
2023-02-18T21:59:48.128Z,0.50
2023-02-18T22:02:23.737Z,0.60
2023-02-18T22:04:53.950Z,0.43
2023-02-18T22:07:26.444Z,0.47
2023-02-18T22:09:56.815Z,0.33
2023-02-18T22:12:27.289Z,0.60
2023-02-18T22:14:56.824Z,0.20
2023-02-18T22:17:28.229Z,1.37
2023-02-18T22:22:26.880Z,1.32
2023-02-18T22:24:56.634Z,0.73
2023-02-18T22:27:27.200Z,0.88
2023-02-18T22:29:57.248Z,0.90
2023-02-18T22:32:27.168Z,0.80
2023-02-18T22:34:56.965Z,0.70
2023-02-18T22:37:26.867Z,0.40
2023-02-18T22:39:56.740Z,0.53
2023-02-18T22:42:26.771Z,0.63
2023-02-18T22:44:57.221Z,0.50
2023-02-18T22:47:26.807Z,0.73
2023-02-18T22:49:56.571Z,1.23
2023-02-18T22:52:26.380Z,1.20
2023-02-18T22:54:56.450Z,1.50
2023-02-18T22:57:26.250Z,0.87
2023-02-18T22:59:56.307Z,1.10
2023-02-18T23:02:26.185Z,0.50
2023-02-18T23:04:55.958Z,0.90
2023-02-18T23:07:26.222Z,1.47
2023-02-18T23:09:56.000Z,1.53
2023-02-18T23:12:26.088Z,0.90
2023-02-18T23:14:55.878Z,1.20
2023-02-18T23:17:25.781Z,1.23
2023-02-18T23:19:55.552Z,1.10
2023-02-18T23:22:32.350Z,0.90
2023-02-18T23:25:03.181Z,1.40
2023-02-18T23:27:33.129Z,1.32
2023-02-18T23:30:03.147Z,1.57
2023-02-18T23:32:33.327Z,1.65
2023-02-18T23:35:03.136Z,1.37
2023-02-18T23:37:50.989Z,0.77
2023-02-18T23:40:20.856Z,0.97
2023-02-18T23:42:52.691Z,0.57
2023-02-18T23:45:24.207Z,0.40
2023-02-18T23:50:22.797Z,0.65
2023-02-18T23:52:53.476Z,0.80
2023-02-18T23:55:22.975Z,0.70
2023-02-18T23:57:52.785Z,0.60
